Time;durP1;ratioP1;P1;durP2;ratioP2;P2;SDS_P1;SDS_P2;PMS_P1;PMS_P2;Temp;Humidity;BMP_temperature;BMP_pressure;BME280_temperature;BME280_humidity;BME280_pressure;Samples;Min_cycle;Max_cycle;Signal;HPM_P1;HPM_P2
2022/04/17 00:01:31;;;;;;;30.83;20.15;;;5.70;99.90;;;;;;5090230;28;20469;-77
2022/04/17 00:03:57;;;;;;;32.33;20.98;;;4.90;99.90;;;;;;5108282;28;20044;-77
2022/04/17 00:06:22;;;;;;;35.10;20.75;;;4.80;99.90;;;;;;5107655;28;20039;-77
2022/04/17 00:08:49;;;;;;;30.10;18.48;;;6.20;99.90;;;;;;5108418;28;20079;-77
2022/04/17 00:11:15;;;;;;;34.10;19.08;;;4.80;99.90;;;;;;5107150;28;20039;-77
2022/04/17 00:13:42;;;;;;;34.20;20.73;;;4.70;99.90;;;;;;5109040;28;20048;-78
2022/04/17 00:16:08;;;;;;;35.90;19.50;;;4.70;99.90;;;;;;5107986;28;20042;-78
2022/04/17 00:18:34;;;;;;;30.42;19.77;;;5.80;99.90;;;;;;5108171;28;20044;-77
2022/04/17 00:20:59;;;;;;;34.20;21.35;;;4.60;99.90;;;;;;5108232;28;20040;-77
2022/04/17 00:23:25;;;;;;;37.13;20.52;;;4.50;99.90;;;;;;5107331;28;20047;-77
2022/04/17 00:25:51;;;;;;;35.80;20.10;;;4.50;99.90;;;;;;5108117;28;20078;-78
2022/04/17 00:28:16;;;;;;;37.70;23.40;;;4.40;99.90;;;;;;5105742;28;20040;-78
2022/04/17 00:30:42;;;;;;;36.28;20.67;;;4.30;99.90;;;;;;5108219;28;20143;-77
2022/04/17 00:33:08;;;;;;;28.42;18.30;;;4.30;99.90;;;;;;5107624;28;20097;-77
2022/04/17 00:35:34;;;;;;;32.17;20.80;;;4.20;99.90;;;;;;5108246;28;20079;-76
2022/04/17 00:38:02;;;;;;;37.22;19.83;;;4.20;99.90;;;;;;5085736;28;20044;-77
2022/04/17 00:40:28;;;;;;;40.40;23.23;;;4.10;99.90;;;;;;5086882;28;20122;-76
2022/04/17 00:42:53;;;;;;;33.70;20.98;;;4.10;99.90;;;;;;5087677;28;20044;-77
2022/04/17 00:45:19;;;;;;;31.25;21.05;;;4.00;99.90;;;;;;5084753;28;20384;-77
2022/04/17 00:47:45;;;;;;;32.67;20.58;;;4.00;99.90;;;;;;5087989;28;20043;-77
2022/04/17 00:50:12;;;;;;;35.08;21.90;;;4.00;99.90;;;;;;5085094;28;20127;-77
2022/04/17 00:52:38;;;;;;;40.00;22.60;;;3.90;99.90;;;;;;5087561;28;20075;-77
2022/04/17 00:55:05;;;;;;;36.47;24.25;;;3.90;99.90;;;;;;5087459;28;20062;-78
2022/04/17 00:57:31;;;;;;;43.63;23.77;;;4.00;99.90;;;;;;5086537;28;20072;-76
2022/04/17 00:59:58;;;;;;;35.85;25.13;;;3.90;99.90;;;;;;5087502;28;20122;-77
2022/04/17 01:02:23;;;;;;;39.13;24.88;;;3.90;99.90;;;;;;5084568;28;20036;-77
2022/04/17 01:04:49;;;;;;;35.20;25.17;;;3.90;99.90;;;;;;5087366;28;20177;-78
2022/04/17 01:07:15;;;;;;;36.92;22.20;;;3.90;99.90;;;;;;5085002;28;20127;-77
2022/04/17 01:09:43;;;;;;;36.10;22.75;;;3.80;99.90;;;;;;5087492;28;20117;-77
2022/04/17 01:12:10;;;;;;;38.38;24.48;;;3.80;99.90;;;;;;5086910;28;20118;-77
2022/04/17 01:14:41;;;;;;;39.63;24.08;;;3.80;99.90;;;;;;5085979;28;20570;-77
2022/04/17 01:17:08;;;;;;;45.65;26.20;;;3.80;99.90;;;;;;5087036;28;20044;-77
2022/04/17 01:19:39;;;;;;;41.72;24.10;;;3.80;99.90;;;;;;5085845;28;20490;-77
2022/04/17 01:22:10;;;;;;;38.90;23.80;;;3.70;99.90;;;;;;5087486;28;20043;-77
2022/04/17 01:27:22;;;;;;;35.85;24.20;;;3.70;99.90;;;;;;5086346;28;20052;-77
2022/04/17 01:29:48;;;;;;;42.72;27.83;;;3.70;99.90;;;;;;5087038;28;20093;-77
2022/04/17 01:32:15;;;;;;;43.00;28.13;;;3.70;99.90;;;;;;5084628;28;20086;-77
2022/04/17 01:34:41;;;;;;;47.33;27.85;;;3.60;99.90;;;;;;5087155;28;20044;-76
2022/04/17 01:37:06;;;;;;;41.60;26.52;;;3.60;99.90;;;;;;5092548;28;20048;-77
2022/04/17 01:39:32;;;;;;;46.17;27.17;;;4.80;99.90;;;;;;5107268;28;20048;-77
2022/04/17 01:41:59;;;;;;;45.08;26.00;;;3.60;99.90;;;;;;5088705;28;20036;-78
2022/04/17 01:44:28;;;;;;;41.83;27.42;;;3.60;99.90;;;;;;5106294;28;20055;-77
2022/04/17 01:46:53;;;;;;;42.97;30.00;;;4.50;99.90;;;;;;5088967;28;20054;-76
2022/04/17 01:49:19;;;;;;;45.72;29.35;;;3.50;99.90;;;;;;5106011;28;20036;-76
2022/04/17 01:51:48;;;;;;;44.20;28.40;;;3.50;99.90;;;;;;5107409;28;20395;-77
2022/04/17 01:54:18;;;;;;;47.97;31.52;;;3.40;99.90;;;;;;5106239;28;20039;-77
2022/04/17 01:56:47;;;;;;;55.35;33.65;;;3.30;99.90;;;;;;5106933;28;20352;-77
2022/04/17 01:59:13;;;;;;;52.67;32.75;;;3.30;99.90;;;;;;5090448;28;20044;-75
2022/04/17 02:01:40;;;;;;;55.13;33.10;;;3.30;99.90;;;;;;5074406;28;20055;-77
2022/04/17 02:04:07;;;;;;;56.80;34.05;;;4.40;99.90;;;;;;5110569;28;20131;-76
2022/04/17 02:06:33;;;;;;;56.90;34.35;;;4.30;99.90;;;;;;5109679;28;20048;-76
2022/04/17 02:09:01;;;;;;;52.20;32.63;;;4.20;99.90;;;;;;5111127;28;20071;-76
2022/04/17 02:11:28;;;;;;;51.90;33.22;;;3.10;99.90;;;;;;5091304;28;20055;-77
2022/04/17 02:13:54;;;;;;;53.13;31.95;;;3.10;99.90;;;;;;5092311;28;20059;-76
2022/04/17 02:16:20;;;;;;;53.55;32.55;;;3.70;99.90;;;;;;5110660;28;20130;-77
2022/04/17 02:18:47;;;;;;;50.85;32.28;;;3.00;99.90;;;;;;5109558;28;20127;-77
2022/04/17 02:21:14;;;;;;;48.72;31.20;;;3.00;99.90;;;;;;5110830;28;20048;-77
2022/04/17 02:23:43;;;;;;;49.55;31.23;;;3.00;99.90;;;;;;5108884;28;20040;-77
2022/04/17 02:26:10;;;;;;;50.38;31.00;;;2.90;99.90;;;;;;5110847;28;20060;-77
2022/04/17 02:28:37;;;;;;;57.00;33.35;;;2.90;99.90;;;;;;5109444;28;20399;-77
2022/04/17 02:31:05;;;;;;;55.78;34.10;;;2.40;99.90;;;;;;5110223;28;20510;-77
2022/04/17 02:33:31;;;;;;;57.35;37.13;;;2.80;99.90;;;;;;5110081;28;20517;-77
2022/04/17 02:35:57;;;;;;;62.10;38.65;;;2.90;99.90;;;;;;5109356;28;20072;-77
2022/04/17 02:38:23;;;;;;;57.05;34.80;;;2.90;99.90;;;;;;5110222;28;20562;-76
2022/04/17 02:40:48;;;;;;;54.00;32.58;;;2.90;99.90;;;;;;5109109;28;20051;-77
2022/04/17 02:43:14;;;;;;;58.20;34.67;;;2.80;99.90;;;;;;5075294;28;20062;-76
2022/04/17 02:45:40;;;;;;;59.10;35.67;;;2.80;99.90;;;;;;5109806;28;20050;-78
2022/04/17 02:48:06;;;;;;;53.08;34.63;;;2.80;99.90;;;;;;5091621;28;20473;-76
2022/04/17 02:50:31;;;;;;;54.78;34.30;;;2.80;99.90;;;;;;5074749;28;20046;-77
2022/04/17 02:52:57;;;;;;;48.05;32.67;;;2.80;99.90;;;;;;5073560;28;20544;-77
2022/04/17 02:55:23;;;;;;;55.00;34.63;;;3.30;99.90;;;;;;5091750;28;20118;-76
2022/04/17 02:57:49;;;;;;;60.50;35.08;;;2.80;99.90;;;;;;5089971;28;20036;-77
2022/04/17 03:00:16;;;;;;;59.22;36.35;;;4.20;99.90;;;;;;5109970;28;20047;-77
2022/04/17 03:05:36;;;;;;;58.92;36.85;;;2.70;99.90;;;;;;5108966;28;20073;-77
2022/04/17 03:08:08;;;;;;;59.03;35.50;;;4.20;99.90;;;;;;5109884;28;20046;-77
2022/04/17 03:10:38;;;;;;;54.53;36.63;;;2.70;99.90;;;;;;5107236;28;20050;-77
2022/04/17 03:13:05;;;;;;;55.63;37.28;;;3.90;99.90;;;;;;5110207;28;20498;-77
2022/04/17 03:15:31;;;;;;;55.88;35.25;;;2.60;99.90;;;;;;5108709;28;20044;-76
2022/04/17 03:17:58;;;;;;;55.30;35.92;;;3.60;99.90;;;;;;5109464;28;20122;-76
2022/04/17 03:20:28;;;;;;;52.42;35.17;;;2.60;99.90;;;;;;5109072;28;20486;-77
2022/04/17 03:22:54;;;;;;;48.88;32.97;;;2.60;99.90;;;;;;5108327;28;20483;-77
2022/04/17 03:25:20;;;;;;;55.28;35.28;;;2.50;99.90;;;;;;5109565;28;20035;-77
2022/04/17 03:27:49;;;;;;;55.25;35.05;;;2.50;99.90;;;;;;5108094;28;20124;-77
2022/04/17 03:30:18;;;;;;;56.33;34.90;;;3.40;99.90;;;;;;5109650;28;20479;-76
2022/04/17 03:32:46;;;;;;;50.63;33.10;;;2.40;99.90;;;;;;5108847;28;20138;-76
2022/04/17 03:35:13;;;;;;;53.45;34.50;;;2.40;99.90;;;;;;5109281;28;20040;-77
2022/04/17 03:37:42;;;;;;;49.00;32.72;;;1.20;99.90;;;;;;5073737;28;20510;-76
2022/04/17 03:40:10;;;;;;;52.67;33.72;;;2.70;99.90;;;;;;5090227;28;20112;-77
2022/04/17 03:42:35;;;;;;;48.80;32.30;;;2.30;99.90;;;;;;5073982;28;20494;-77
2022/04/17 03:45:06;;;;;;;49.38;31.38;;;2.30;99.90;;;;;;5108009;28;20046;-77
2022/04/17 03:47:33;;;;;;;50.28;30.13;;;2.50;99.90;;;;;;5090868;28;20058;-77
2022/04/17 03:49:59;;;;;;;48.17;32.53;;;3.70;99.90;;;;;;5108365;28;20044;-77
2022/04/17 03:52:25;;;;;;;45.75;30.52;;;2.20;99.90;;;;;;5090093;28;20073;-77
2022/04/17 03:54:51;;;;;;;47.83;30.05;;;2.20;99.90;;;;;;5090936;28;20036;-77
2022/04/17 03:57:16;;;;;;;40.53;29.33;;;2.20;99.90;;;;;;5089595;28;20173;-77
2022/04/17 03:59:42;;;;;;;44.25;28.90;;;2.20;99.90;;;;;;5090107;28;20047;-77
2022/04/17 04:02:08;;;;;;;44.78;27.92;;;2.20;99.90;;;;;;5107460;28;20112;-77
2022/04/17 04:04:34;;;;;;;42.97;28.05;;;3.40;99.90;;;;;;5108875;28;20031;-77
2022/04/17 04:07:00;;;;;;;43.33;27.60;;;2.10;99.90;;;;;;5089869;28;20055;-78
2022/04/17 04:09:26;;;;;;;42.33;27.45;;;2.10;99.90;;;;;;5108242;28;20143;-77
2022/04/17 04:11:51;;;;;;;40.40;26.95;;;3.00;99.90;;;;;;5108335;28;20043;-78
2022/04/17 04:14:17;;;;;;;38.45;25.23;;;2.10;99.90;;;;;;5107410;28;20043;-77
2022/04/17 04:16:42;;;;;;;44.65;27.30;;;2.00;99.90;;;;;;5089915;28;20050;-78
2022/04/17 04:19:13;;;;;;;37.55;25.20;;;2.10;99.90;;;;;;5071741;28;20055;-77
2022/04/17 04:21:47;;;;;;;38.28;25.63;;;2.10;99.90;;;;;;5073727;28;20044;-77
2022/04/17 04:24:14;;;;;;;35.92;24.30;;;2.00;99.90;;;;;;5090833;28;20089;-77
2022/04/17 04:26:42;;;;;;;44.88;25.70;;;3.30;99.90;;;;;;5107644;28;20050;-77
2022/04/17 04:29:08;;;;;;;37.67;23.70;;;2.00;99.90;;;;;;5108035;28;20100;-77
2022/04/17 04:31:34;;;;;;;35.90;22.52;;;2.00;99.90;;;;;;5106697;28;20044;-77
2022/04/17 04:33:59;;;;;;;35.42;21.77;;;2.00;99.90;;;;;;5108290;28;20165;-78
2022/04/17 04:36:25;;;;;;;36.13;20.42;;;2.00;99.90;;;;;;5106936;28;20104;-76
2022/04/17 04:38:50;;;;;;;36.92;21.92;;;2.00;99.90;;;;;;5108549;28;20047;-77
2022/04/17 04:41:16;;;;;;;30.60;20.13;;;3.00;99.90;;;;;;5089801;28;20425;-77
2022/04/17 04:43:42;;;;;;;29.40;19.58;;;2.10;99.90;;;;;;5089595;28;20442;-77
2022/04/17 04:46:07;;;;;;;34.40;21.35;;;2.10;99.90;;;;;;5089839;28;20397;-77
2022/04/17 04:51:19;;;;;;;31.10;19.80;;;2.10;99.90;;;;;;5108154;28;20048;-77
2022/04/17 04:53:45;;;;;;;27.23;17.15;;;2.00;99.90;;;;;;5106942;28;20383;-77
2022/04/17 04:56:13;;;;;;;24.20;16.92;;;3.10;99.90;;;;;;5107681;28;20051;-77
2022/04/17 04:58:38;;;;;;;26.30;17.00;;;2.20;99.90;;;;;;5088855;28;20051;-76
2022/04/17 05:01:04;;;;;;;25.63;16.73;;;2.20;99.90;;;;;;5088072;28;20089;-77
2022/04/17 05:03:30;;;;;;;26.88;16.58;;;2.30;99.90;;;;;;5072335;28;20036;-77
2022/04/17 05:05:55;;;;;;;23.40;16.50;;;2.40;99.90;;;;;;5071137;28;20043;-76
2022/04/17 05:08:21;;;;;;;33.72;17.33;;;2.40;99.90;;;;;;5107854;28;20039;-77
2022/04/17 05:10:48;;;;;;;26.00;16.92;;;3.90;99.90;;;;;;5088043;28;20050;-77
2022/04/17 05:13:14;;;;;;;23.50;15.90;;;2.60;99.90;;;;;;5107410;28;20039;-77
2022/04/17 05:15:40;;;;;;;27.77;17.05;;;2.70;99.90;;;;;;5107450;28;20039;-77
2022/04/17 05:18:06;;;;;;;29.95;17.55;;;2.80;99.90;;;;;;5106642;28;20047;-76
2022/04/17 05:20:33;;;;;;;23.40;15.90;;;2.90;99.90;;;;;;5107417;28;20107;-76
2022/04/17 05:23:15;;;;;;;25.33;15.27;;;2.90;99.90;;;;;;5105995;28;20131;-76
2022/04/17 05:25:42;;;;;;;27.05;15.65;;;3.00;99.90;;;;;;5107766;28;20055;-76
2022/04/17 05:28:07;;;;;;;28.17;16.20;;;3.40;99.90;;;;;;5106845;28;20036;-77
2022/04/17 05:30:33;;;;;;;25.58;15.65;;;3.20;99.90;;;;;;5107376;28;20047;-76
2022/04/17 05:32:59;;;;;;;24.70;15.90;;;3.30;99.90;;;;;;5088860;28;20411;-77
2022/04/17 05:35:24;;;;;;;23.88;15.48;;;3.40;99.90;;;;;;5074984;28;20043;-77
2022/04/17 05:37:50;;;;;;;28.38;16.50;;;3.50;99.90;;;;;;5111294;28;20056;-76
2022/04/17 05:40:16;;;;;;;30.45;15.15;;;3.60;99.90;;;;;;5091951;28;20043;-76
2022/04/17 05:42:41;;;;;;;22.40;14.68;;;3.70;99.90;;;;;;5111446;28;20040;-77
2022/04/17 05:45:07;;;;;;;22.92;14.30;;;4.80;99.90;;;;;;5110536;28;20043;-78
2022/04/17 05:47:33;;;;;;;19.83;12.45;;;3.90;99.90;;;;;;5092568;28;20075;-78
2022/04/17 05:50:00;;;;;;;26.65;12.63;;;4.10;99.90;;;;;;5077691;28;20089;-78
2022/04/17 05:52:26;;;;;;;24.38;13.18;;;4.70;99.90;;;;;;5111785;28;20116;-77
2022/04/17 05:54:52;;;;;;;23.88;13.10;;;4.40;99.90;;;;;;5093166;28;20067;-77
2022/04/17 05:57:18;;;;;;;18.40;11.85;;;4.50;99.90;;;;;;5091507;28;20558;-76
2022/04/17 05:59:44;;;;;;;18.52;11.68;;;5.20;99.90;;;;;;5092745;28;20063;-76
2022/04/17 06:02:13;;;;;;;21.65;12.05;;;4.80;99.90;;;;;;5110346;28;20047;-77
2022/04/17 06:04:39;;;;;;;21.35;11.00;;;5.00;99.90;;;;;;5110774;28;20502;-77
2022/04/17 06:07:04;;;;;;;21.38;12.45;;;5.20;99.90;;;;;;5111025;28;20044;-77
2022/04/17 06:09:30;;;;;;;21.20;11.43;;;5.40;99.90;;;;;;5109963;28;20035;-78
2022/04/17 06:11:56;;;;;;;19.60;9.98;;;5.40;99.90;;;;;;5110978;28;20040;-77
2022/04/17 06:14:22;;;;;;;26.63;11.27;;;5.50;99.90;;;;;;5091393;28;20499;-78
2022/04/17 06:16:48;;;;;;;16.65;10.52;;;5.60;99.90;;;;;;5110972;28;20040;-78
2022/04/17 06:19:14;;;;;;;16.10;10.07;;;6.10;99.90;;;;;;5091122;28;20047;-78
2022/04/17 06:21:40;;;;;;;16.27;10.25;;;5.90;99.90;;;;;;5110634;28;20039;-75
2022/04/17 06:24:06;;;;;;;15.85;9.85;;;6.00;99.90;;;;;;5091860;28;20433;-78
2022/04/17 06:26:33;;;;;;;19.02;10.60;;;6.10;99.90;;;;;;5109212;28;20035;-77
2022/04/17 06:29:03;;;;;;;14.48;9.85;;;6.30;99.90;;;;;;5075791;28;20490;-77
2022/04/17 06:31:30;;;;;;;20.95;10.20;;;6.40;99.90;;;;;;5091071;28;20044;-77
2022/04/17 06:33:55;;;;;;;16.60;9.63;;;6.50;99.90;;;;;;5092514;28;20047;-77
2022/04/17 06:36:21;;;;;;;17.33;8.75;;;6.60;99.90;;;;;;5074610;28;20104;-76
2022/04/17 06:38:47;;;;;;;16.70;9.20;;;6.80;99.90;;;;;;5074904;28;20051;-77
2022/04/17 06:41:12;;;;;;;13.45;8.27;;;6.90;99.90;;;;;;5091931;28;20041;-77
2022/04/17 06:43:38;;;;;;;16.98;9.88;;;8.00;99.90;;;;;;5091236;28;20074;-76
2022/04/17 06:46:04;;;;;;;15.00;8.85;;;7.10;99.90;;;;;;5109998;28;20038;-77
2022/04/17 06:48:29;;;;;;;16.20;9.30;;;7.30;99.90;;;;;;5090548;28;20139;-78
2022/04/17 06:50:56;;;;;;;16.17;9.77;;;7.50;99.90;;;;;;5110091;28;20039;-78
2022/04/17 06:53:22;;;;;;;17.92;8.70;;;7.50;99.90;;;;;;5109269;28;20051;-78
2022/04/17 06:55:48;;;;;;;12.02;7.75;;;7.60;99.90;;;;;;5109678;28;20498;-78
2022/04/17 06:58:18;;;;;;;15.73;8.85;;;7.70;99.90;;;;;;5109693;28;20089;-78
2022/04/17 07:00:44;;;;;;;14.68;8.85;;;7.80;99.90;;;;;;5090799;28;20602;-78
2022/04/17 07:03:10;;;;;;;13.20;8.70;;;8.00;99.90;;;;;;5110256;28;20108;-78
2022/04/17 07:05:36;;;;;;;15.25;8.93;;;9.10;99.90;;;;;;5108446;28;20350;-78
2022/04/17 07:08:04;;;;;;;13.93;8.27;;;9.60;99.90;;;;;;5093569;28;20062;-77
2022/04/17 07:10:32;;;;;;;14.60;8.65;;;8.40;99.90;;;;;;5092388;28;20559;-77
2022/04/17 07:12:59;;;;;;;11.82;7.90;;;8.60;99.90;;;;;;5092452;28;20050;-77
2022/04/17 07:15:25;;;;;;;15.70;7.75;;;9.70;99.90;;;;;;5111124;28;20036;-77
2022/04/17 07:17:53;;;;;;;19.30;7.95;;;8.80;99.90;;;;;;5110353;28;20035;-77
2022/04/17 07:20:19;;;;;;;11.10;6.93;;;8.90;99.90;;;;;;5111735;28;20479;-76
2022/04/17 07:22:47;;;;;;;16.23;6.78;;;9.00;99.90;;;;;;5091979;28;20039;-77
2022/04/17 07:25:14;;;;;;;11.95;7.03;;;9.10;99.90;;;;;;5111237;28;20079;-77
2022/04/17 07:27:45;;;;;;;11.10;7.15;;;9.30;99.90;;;;;;5110037;28;20524;-77
2022/04/17 07:30:16;;;;;;;11.43;6.90;;;10.20;99.90;;;;;;5091534;28;20079;-77
2022/04/17 07:32:44;;;;;;;11.60;6.68;;;9.60;99.80;;;;;;5110465;28;20075;-77
2022/04/17 07:35:11;;;;;;;10.68;6.10;;;9.70;99.70;;;;;;5091522;28;20436;-77
2022/04/17 07:37:38;;;;;;;13.25;6.40;;;9.80;98.90;;;;;;5110809;28;20063;-77
2022/04/17 07:40:17;;;;;;;12.85;6.32;;;9.80;98.60;;;;;;5109340;28;20184;-77
2022/04/17 07:42:43;;;;;;;9.65;5.60;;;11.10;95.60;;;;;;5092186;28;20051;-77
2022/04/17 07:45:10;;;;;;;10.13;6.25;;;10.90;97.90;;;;;;5109311;28;20052;-77
2022/04/17 07:47:36;;;;;;;8.90;5.68;;;10.10;97.30;;;;;;5090727;28;20526;-77
2022/04/17 07:50:03;;;;;;;11.73;6.05;;;10.80;97.20;;;;;;5109859;28;20050;-78
2022/04/17 07:52:28;;;;;;;10.90;5.75;;;10.40;96.40;;;;;;5090248;28;20403;-77
2022/04/17 07:54:54;;;;;;;11.40;6.65;;;10.50;96.20;;;;;;5075026;28;20051;-77
2022/04/17 07:57:20;;;;;;;11.35;6.07;;;11.40;95.80;;;;;;5089516;28;20493;-77
2022/04/17 07:59:46;;;;;;;13.45;6.40;;;10.70;95.50;;;;;;5074364;28;20047;-76
2022/04/17 08:02:21;;;;;;;7.68;5.63;;;12.00;95.20;;;;;;5091292;28;20082;-76
2022/04/17 08:04:51;;;;;;;7.50;5.28;;;10.80;93.00;;;;;;5108465;28;20486;-77
2022/04/17 08:07:23;;;;;;;8.98;6.22;;;10.90;92.70;;;;;;5110900;28;20043;-76
2022/04/17 08:09:50;;;;;;;11.18;4.97;;;11.00;92.10;;;;;;5108899;28;20066;-76
2022/04/17 08:12:16;;;;;;;8.88;5.80;;;11.10;92.70;;;;;;5109713;28;20042;-76
2022/04/17 08:14:41;;;;;;;12.88;5.82;;;11.20;91.80;;;;;;5108608;28;20051;-75
2022/04/17 08:17:07;;;;;;;9.40;5.88;;;11.30;91.60;;;;;;5108847;28;20047;-76
2022/04/17 08:19:35;;;;;;;9.30;5.40;;;11.40;91.60;;;;;;5074070;28;20409;-76
2022/04/17 08:22:01;;;;;;;10.55;5.22;;;11.70;91.70;;;;;;5072618;28;20071;-73
2022/04/17 08:24:29;;;;;;;8.95;5.70;;;11.90;90.60;;;;;;5073794;28;20047;-75
2022/04/17 08:26:55;;;;;;;8.70;5.78;;;12.20;86.50;;;;;;5089688;28;20090;-77
2022/04/17 08:29:21;;;;;;;8.40;5.95;;;12.50;85.00;;;;;;5091265;28;20416;-77
2022/04/17 08:31:47;;;;;;;8.77;5.50;;;12.60;83.50;;;;;;5108821;28;20615;-78
2022/04/17 08:34:12;;;;;;;9.45;5.85;;;12.80;83.00;;;;;;5090157;28;20039;-78
2022/04/17 08:36:40;;;;;;;9.18;5.47;;;12.90;82.00;;;;;;5108024;28;20078;-77
2022/04/17 08:39:05;;;;;;;7.05;5.00;;;13.40;80.60;;;;;;5086169;28;20550;-77
2022/04/17 08:41:33;;;;;;;9.32;5.28;;;13.80;80.00;;;;;;5087559;28;20166;-78
2022/04/17 08:43:58;;;;;;;6.80;5.00;;;14.50;80.10;;;;;;5085989;28;20040;-76
2022/04/17 08:46:24;;;;;;;10.85;5.18;;;13.30;79.10;;;;;;5053652;28;20047;-75
2022/04/17 08:48:51;;;;;;;6.72;4.78;;;13.50;77.00;;;;;;5086090;28;20480;-75
2022/04/17 08:51:20;;;;;;;7.00;5.05;;;13.50;74.50;;;;;;5087577;28;20048;-75
2022/04/17 08:53:49;;;;;;;9.30;4.47;;;13.70;72.60;;;;;;5069672;28;20059;-77
2022/04/17 08:56:15;;;;;;;10.57;5.18;;;13.80;68.70;;;;;;5087305;28;20115;-77
2022/04/17 08:58:41;;;;;;;7.18;4.78;;;14.00;66.80;;;;;;5087334;28;20497;-76
2022/04/17 09:01:07;;;;;;;8.25;4.50;;;14.10;65.90;;;;;;5087673;28;20126;-77
2022/04/17 09:03:33;;;;;;;9.00;4.93;;;15.20;65.60;;;;;;5089269;28;20090;-77
2022/04/17 09:05:59;;;;;;;8.95;4.40;;;14.20;64.00;;;;;;5088552;28;20047;-77
2022/04/17 09:08:26;;;;;;;4.97;3.90;;;14.40;63.30;;;;;;5087747;28;20094;-77
2022/04/17 09:10:53;;;;;;;9.32;4.72;;;14.30;63.40;;;;;;5069926;28;20040;-76
2022/04/17 09:13:33;;;;;;;7.75;4.20;;;14.20;62.60;;;;;;5086221;28;20060;-75
2022/04/17 09:16:03;;;;;;;7.75;4.70;;;14.20;61.50;;;;;;5087767;28;20044;-77
2022/04/17 09:18:31;;;;;;;6.20;4.40;;;14.30;62.80;;;;;;5087120;28;20126;-78
2022/04/17 09:20:57;;;;;;;8.73;4.03;;;14.30;62.20;;;;;;5087764;28;20123;-77
2022/04/17 09:23:38;;;;;;;7.97;5.13;;;14.40;62.10;;;;;;5087082;28;20040;-77
2022/04/17 09:26:05;;;;;;;6.88;4.10;;;14.50;59.50;;;;;;5086045;28;20479;-77
2022/04/17 09:28:36;;;;;;;7.30;4.75;;;14.60;60.80;;;;;;5087205;28;20048;-76
2022/04/17 09:31:10;;;;;;;8.13;4.93;;;14.60;60.60;;;;;;5086062;28;20637;-77
2022/04/17 09:33:37;;;;;;;8.77;4.57;;;14.70;59.20;;;;;;5086091;28;20068;-77
2022/04/17 09:36:04;;;;;;;7.97;4.32;;;15.20;59.40;;;;;;5085680;28;20100;-77
2022/04/17 09:38:32;;;;;;;7.55;3.80;;;14.90;57.60;;;;;;5102477;28;20048;-77
2022/04/17 09:41:09;;;;;;;10.15;4.57;;;15.00;57.60;;;;;;5107482;28;20044;-77
2022/04/17 09:43:35;;;;;;;6.90;4.07;;;15.30;56.60;;;;;;5106434;28;20058;-77
2022/04/17 09:46:02;;;;;;;6.22;3.80;;;15.50;55.40;;;;;;5107769;28;20035;-77
2022/04/17 09:48:36;;;;;;;5.35;3.53;;;15.60;55.80;;;;;;5088288;28;20269;-77
2022/04/17 09:51:28;;;;;;;5.10;3.85;;;15.70;53.70;;;;;;5106642;28;20047;-77
2022/04/17 09:54:04;;;;;;;7.45;4.05;;;16.60;50.70;;;;;;5072083;28;20130;-77
2022/04/17 09:56:32;;;;;;;6.40;3.42;;;16.00;52.90;;;;;;5106136;28;20054;-76
2022/04/17 09:58:59;;;;;;;5.30;3.50;;;16.00;52.00;;;;;;5106927;28;20506;-76
2022/04/17 10:01:27;;;;;;;6.22;4.05;;;16.90;51.90;;;;;;5106337;28;20603;-77
2022/04/17 10:03:55;;;;;;;5.38;3.20;;;15.90;51.80;;;;;;5107079;28;20040;-76
2022/04/17 10:06:23;;;;;;;6.35;3.10;;;17.30;52.70;;;;;;5088976;28;20046;-78
2022/04/17 10:08:50;;;;;;;4.10;2.80;;;16.00;50.60;;;;;;5070937;28;20079;-78
2022/04/17 10:11:18;;;;;;;4.07;2.20;;;15.90;50.10;;;;;;5107390;28;20047;-77
2022/04/17 10:13:45;;;;;;;3.55;2.30;;;15.90;49.30;;;;;;5087769;28;20120;-77
2022/04/17 10:16:13;;;;;;;6.13;3.53;;;15.90;49.00;;;;;;5089289;28;20039;-78
2022/04/17 10:18:41;;;;;;;5.78;3.70;;;15.90;49.00;;;;;;5088502;28;20100;-78
2022/04/17 10:21:07;;;;;;;9.05;2.60;;;16.00;49.70;;;;;;5074776;28;20055;-78
2022/04/17 10:23:36;;;;;;;4.05;2.42;;;16.10;49.40;;;;;;5092980;28;20039;-78
2022/04/17 10:26:03;;;;;;;4.45;2.80;;;16.20;47.90;;;;;;5109577;28;20071;-78
2022/04/17 10:28:33;;;;;;;4.35;2.83;;;16.20;47.50;;;;;;5092808;28;20079;-77
2022/04/17 10:31:17;;;;;;;4.18;1.80;;;16.20;47.60;;;;;;5110630;28;20043;-78
2022/04/17 10:34:03;;;;;;;2.78;1.73;;;16.30;45.90;;;;;;5111094;28;20066;-78
2022/04/17 10:36:51;;;;;;;2.40;1.65;;;16.40;46.80;;;;;;5092659;28;20123;-78
2022/04/17 10:39:29;;;;;;;3.38;1.63;;;16.50;45.20;;;;;;5091140;28;20054;-77
2022/04/17 10:41:55;;;;;;;2.78;2.05;;;16.70;44.70;;;;;;5110708;28;20165;-78
2022/04/17 10:44:29;;;;;;;2.85;1.83;;;16.80;45.60;;;;;;5075019;28;20144;-77
2022/04/17 10:46:56;;;;;;;3.45;1.88;;;16.90;45.00;;;;;;5109609;28;20051;-76
2022/04/17 10:49:32;;;;;;;3.60;1.88;;;17.00;45.60;;;;;;5110460;28;20414;-77
2022/04/17 10:52:01;;;;;;;3.65;2.55;;;17.10;44.60;;;;;;5091090;28;20035;-77
2022/04/17 10:54:48;;;;;;;4.40;2.03;;;17.20;44.80;;;;;;5075009;28;20043;-78
2022/04/17 10:57:13;;;;;;;3.42;1.83;;;17.30;41.60;;;;;;5074565;28;20050;-77
2022/04/17 10:59:45;;;;;;;2.40;1.48;;;17.30;43.70;;;;;;5109450;28;20039;-77
2022/04/17 11:02:17;;;;;;;2.92;2.22;;;17.40;43.40;;;;;;5092026;28;20054;-77
2022/04/17 11:04:53;;;;;;;4.00;1.75;;;17.40;41.90;;;;;;5090287;28;20130;-77
2022/04/17 11:07:23;;;;;;;3.92;2.05;;;17.40;41.60;;;;;;5091482;28;20096;-77
2022/04/17 11:10:04;;;;;;;3.22;1.67;;;17.40;40.80;;;;;;5109383;28;20119;-77
2022/04/17 11:12:30;;;;;;;2.72;1.70;;;17.40;40.50;;;;;;5108663;28;20498;-78
2022/04/17 11:15:02;;;;;;;2.20;1.50;;;17.50;42.00;;;;;;5109927;28;20079;-77
2022/04/17 11:17:29;;;;;;;2.60;1.45;;;17.60;41.30;;;;;;5108535;28;20513;-77
2022/04/17 11:19:56;;;;;;;2.53;1.88;;;17.70;40.80;;;;;;5091015;28;20043;-77
2022/04/17 11:22:27;;;;;;;3.17;1.90;;;17.80;40.40;;;;;;5108659;28;20040;-77
2022/04/17 11:24:55;;;;;;;3.92;2.33;;;17.80;40.40;;;;;;5091211;28;20036;-78
2022/04/17 11:27:41;;;;;;;3.35;1.90;;;17.90;40.70;;;;;;5091228;28;20047;-77
2022/04/17 11:30:26;;;;;;;5.70;2.20;;;18.00;39.90;;;;;;5089868;28;20043;-77
2022/04/17 11:32:53;;;;;;;2.63;1.77;;;18.10;37.80;;;;;;5089926;28;20498;-78
2022/04/17 11:35:24;;;;;;;4.85;2.35;;;18.10;40.20;;;;;;5090654;28;20499;-77
2022/04/17 11:37:55;;;;;;;4.68;2.65;;;18.20;39.90;;;;;;5073527;28;20135;-77
2022/04/17 11:40:26;;;;;;;3.50;2.20;;;18.30;40.70;;;;;;5091145;28;20100;-77
2022/04/17 11:42:53;;;;;;;4.53;2.55;;;18.20;38.70;;;;;;5108075;28;20035;-77
2022/04/17 11:45:25;;;;;;;3.83;2.67;;;18.30;39.70;;;;;;5108855;28;20126;-77
2022/04/17 11:47:53;;;;;;;3.33;1.88;;;18.40;39.80;;;;;;5108601;28;20075;-77
2022/04/17 11:50:27;;;;;;;5.20;2.40;;;18.30;40.20;;;;;;5109036;28;20079;-76
2022/04/17 11:52:57;;;;;;;4.90;2.42;;;18.30;38.40;;;;;;5090370;28;20088;-77
2022/04/17 11:55:24;;;;;;;2.85;2.13;;;18.30;40.10;;;;;;5108181;28;20067;-78
2022/04/17 11:57:50;;;;;;;4.82;2.22;;;18.40;41.00;;;;;;5090672;28;20498;-77
2022/04/17 12:00:16;;;;;;;5.65;2.53;;;18.50;41.00;;;;;;5089558;28;20131;-78
2022/04/17 12:02:41;;;;;;;4.50;2.60;;;18.60;40.50;;;;;;5090471;28;20043;-77
2022/04/17 12:05:10;;;;;;;3.70;2.13;;;18.70;40.40;;;;;;5056726;28;20039;-77
2022/04/17 12:07:36;;;;;;;2.83;2.25;;;18.80;40.30;;;;;;5073167;28;20386;-77
2022/04/17 12:10:16;;;;;;;3.42;2.28;;;18.80;40.10;;;;;;5090498;28;20350;-78
2022/04/17 12:12:45;;;;;;;4.13;2.05;;;18.90;38.80;;;;;;5107502;28;20051;-78
2022/04/17 12:15:13;;;;;;;4.22;2.35;;;19.00;40.00;;;;;;5073889;28;20062;-77
2022/04/17 12:17:39;;;;;;;3.50;2.38;;;19.00;39.40;;;;;;5090265;28;20162;-78
2022/04/17 12:20:13;;;;;;;3.78;2.60;;;19.10;39.80;;;;;;5074578;28;20039;-78
2022/04/17 12:22:40;;;;;;;6.00;2.92;;;19.20;39.60;;;;;;5108807;28;20048;-76
2022/04/17 12:25:17;;;;;;;4.78;2.80;;;19.20;39.10;;;;;;5107784;28;20079;-76
2022/04/17 12:27:49;;;;;;;4.38;2.28;;;19.10;37.30;;;;;;5108473;28;20039;-77
2022/04/17 12:30:19;;;;;;;4.72;2.75;;;19.10;38.40;;;;;;5089170;28;20494;-77
2022/04/17 12:32:46;;;;;;;4.82;3.20;;;19.10;38.90;;;;;;5089730;28;20093;-78
2022/04/17 12:35:13;;;;;;;3.80;2.80;;;19.20;39.40;;;;;;5072441;28;20074;-77
2022/04/17 12:37:39;;;;;;;4.70;3.05;;;19.20;38.80;;;;;;5107531;28;20055;-77
2022/04/17 12:40:39;;;;;;;3.72;2.92;;;19.30;39.10;;;;;;5090045;28;20407;-77
2022/04/17 12:43:18;;;;;;;4.35;2.63;;;19.30;37.10;;;;;;5059178;28;20131;-77
2022/04/17 12:46:03;;;;;;;6.20;2.90;;;19.40;37.50;;;;;;5108060;28;20051;-76
2022/04/17 12:48:36;;;;;;;4.38;2.88;;;19.50;37.90;;;;;;5072727;28;20131;-77
2022/04/17 12:51:09;;;;;;;5.35;3.08;;;19.40;38.80;;;;;;5072780;28;20071;-77
2022/04/17 12:53:35;;;;;;;;;;;19.40;39.00;;;;;;5090380;28;20047;-77